sensor_id;sensor_type;location;lat;lon;timestamp;P1;durP1;ratioP1;P2;durP2;ratioP2
15012;SDS011;7603;49.432;11.418;2023-12-20T00:01:21;7.70;;;6.97;;
15012;SDS011;7603;49.432;11.418;2023-12-20T00:03:47;8.02;;;7.22;;
15012;SDS011;7603;49.432;11.418;2023-12-20T00:06:13;7.60;;;6.80;;
15012;SDS011;7603;49.432;11.418;2023-12-20T00:08:38;7.82;;;7.13;;
15012;SDS011;7603;49.432;11.418;2023-12-20T00:11:04;8.80;;;7.70;;
15012;SDS011;7603;49.432;11.418;2023-12-20T00:13:30;8.85;;;8.02;;
15012;SDS011;7603;49.432;11.418;2023-12-20T00:15:56;8.10;;;7.30;;
15012;SDS011;7603;49.432;11.418;2023-12-20T00:18:21;19.85;;;11.48;;
15012;SDS011;7603;49.432;11.418;2023-12-20T00:20:47;8.50;;;7.68;;
15012;SDS011;7603;49.432;11.418;2023-12-20T00:23:13;10.90;;;8.10;;
15012;SDS011;7603;49.432;11.418;2023-12-20T00:25:39;9.05;;;8.05;;
15012;SDS011;7603;49.432;11.418;2023-12-20T00:28:04;10.67;;;8.77;;
15012;SDS011;7603;49.432;11.418;2023-12-20T00:30:31;15.20;;;10.77;;
15012;SDS011;7603;49.432;11.418;2023-12-20T00:32:56;10.27;;;8.73;;
15012;SDS011;7603;49.432;11.418;2023-12-20T00:35:22;8.95;;;8.05;;
15012;SDS011;7603;49.432;11.418;2023-12-20T00:37:48;9.90;;;8.25;;
15012;SDS011;7603;49.432;11.418;2023-12-20T00:40:13;13.52;;;9.27;;
15012;SDS011;7603;49.432;11.418;2023-12-20T00:42:39;12.65;;;10.02;;
15012;SDS011;7603;49.432;11.418;2023-12-20T00:45:05;13.40;;;10.18;;
15012;SDS011;7603;49.432;11.418;2023-12-20T00:47:31;13.45;;;10.90;;
15012;SDS011;7603;49.432;11.418;2023-12-20T00:49:57;20.30;;;12.45;;
15012;SDS011;7603;49.432;11.418;2023-12-20T00:52:23;10.68;;;9.30;;
15012;SDS011;7603;49.432;11.418;2023-12-20T00:54:49;12.82;;;9.90;;
15012;SDS011;7603;49.432;11.418;2023-12-20T00:57:15;21.67;;;12.50;;
15012;SDS011;7603;49.432;11.418;2023-12-20T00:59:40;10.95;;;9.85;;
15012;SDS011;7603;49.432;11.418;2023-12-20T01:02:06;14.15;;;10.27;;
15012;SDS011;7603;49.432;11.418;2023-12-20T01:04:32;69.40;;;31.73;;
15012;SDS011;7603;49.432;11.418;2023-12-20T01:06:58;45.17;;;22.30;;
15012;SDS011;7603;49.432;11.418;2023-12-20T01:09:23;15.52;;;10.70;;
15012;SDS011;7603;49.432;11.418;2023-12-20T01:11:51;19.05;;;12.18;;
15012;SDS011;7603;49.432;11.418;2023-12-20T01:14:17;19.33;;;12.57;;
15012;SDS011;7603;49.432;11.418;2023-12-20T01:16:43;44.60;;;19.58;;
15012;SDS011;7603;49.432;11.418;2023-12-20T01:19:09;16.67;;;11.60;;
15012;SDS011;7603;49.432;11.418;2023-12-20T01:21:34;16.90;;;11.05;;
15012;SDS011;7603;49.432;11.418;2023-12-20T01:24:00;14.82;;;9.80;;
15012;SDS011;7603;49.432;11.418;2023-12-20T01:26:25;13.98;;;9.90;;
15012;SDS011;7603;49.432;11.418;2023-12-20T01:28:51;13.90;;;10.00;;
15012;SDS011;7603;49.432;11.418;2023-12-20T01:31:16;7.97;;;6.97;;
15012;SDS011;7603;49.432;11.418;2023-12-20T01:33:42;9.30;;;8.15;;
15012;SDS011;7603;49.432;11.418;2023-12-20T01:36:08;10.57;;;8.52;;
15012;SDS011;7603;49.432;11.418;2023-12-20T01:38:34;10.07;;;8.13;;
15012;SDS011;7603;49.432;11.418;2023-12-20T01:40:59;10.60;;;7.45;;
15012;SDS011;7603;49.432;11.418;2023-12-20T01:43:25;8.57;;;7.15;;
15012;SDS011;7603;49.432;11.418;2023-12-20T01:45:51;6.45;;;4.60;;
15012;SDS011;7603;49.432;11.418;2023-12-20T01:48:17;6.45;;;5.93;;
15012;SDS011;7603;49.432;11.418;2023-12-20T01:50:44;5.57;;;4.45;;
15012;SDS011;7603;49.432;11.418;2023-12-20T01:53:11;5.68;;;4.80;;
15012;SDS011;7603;49.432;11.418;2023-12-20T01:55:40;4.35;;;3.95;;
15012;SDS011;7603;49.432;11.418;2023-12-20T01:58:07;6.78;;;5.85;;
15012;SDS011;7603;49.432;11.418;2023-12-20T02:00:35;6.10;;;4.85;;
15012;SDS011;7603;49.432;11.418;2023-12-20T02:03:01;3.75;;;3.20;;
15012;SDS011;7603;49.432;11.418;2023-12-20T02:05:28;4.25;;;3.95;;
15012;SDS011;7603;49.432;11.418;2023-12-20T02:07:55;4.60;;;3.55;;
15012;SDS011;7603;49.432;11.418;2023-12-20T02:10:21;3.38;;;3.08;;
15012;SDS011;7603;49.432;11.418;2023-12-20T02:12:47;3.90;;;3.35;;
15012;SDS011;7603;49.432;11.418;2023-12-20T02:15:12;3.83;;;3.53;;
15012;SDS011;7603;49.432;11.418;2023-12-20T02:17:38;3.40;;;3.10;;
15012;SDS011;7603;49.432;11.418;2023-12-20T02:20:04;3.05;;;2.85;;
15012;SDS011;7603;49.432;11.418;2023-12-20T02:22:31;2.35;;;2.25;;
15012;SDS011;7603;49.432;11.418;2023-12-20T02:24:57;3.88;;;3.45;;
15012;SDS011;7603;49.432;11.418;2023-12-20T02:27:23;3.05;;;2.85;;
15012;SDS011;7603;49.432;11.418;2023-12-20T02:29:49;3.08;;;2.88;;
15012;SDS011;7603;49.432;11.418;2023-12-20T02:32:15;1.48;;;1.38;;
15012;SDS011;7603;49.432;11.418;2023-12-20T02:34:45;2.20;;;2.10;;
15012;SDS011;7603;49.432;11.418;2023-12-20T02:37:14;2.55;;;2.08;;
15012;SDS011;7603;49.432;11.418;2023-12-20T02:39:40;3.10;;;2.53;;
15012;SDS011;7603;49.432;11.418;2023-12-20T02:42:06;2.35;;;2.13;;
15012;SDS011;7603;49.432;11.418;2023-12-20T02:44:31;2.42;;;1.98;;
15012;SDS011;7603;49.432;11.418;2023-12-20T02:46:57;2.72;;;2.53;;
15012;SDS011;7603;49.432;11.418;2023-12-20T02:49:23;2.38;;;2.17;;
15012;SDS011;7603;49.432;11.418;2023-12-20T02:51:49;2.85;;;2.65;;
15012;SDS011;7603;49.432;11.418;2023-12-20T02:54:14;1.77;;;1.67;;
15012;SDS011;7603;49.432;11.418;2023-12-20T02:56:40;1.10;;;1.10;;
15012;SDS011;7603;49.432;11.418;2023-12-20T02:59:05;1.27;;;1.05;;
15012;SDS011;7603;49.432;11.418;2023-12-20T03:01:33;1.08;;;1.08;;
15012;SDS011;7603;49.432;11.418;2023-12-20T03:04:00;1.08;;;1.05;;
15012;SDS011;7603;49.432;11.418;2023-12-20T03:06:26;1.30;;;1.30;;
15012;SDS011;7603;49.432;11.418;2023-12-20T03:08:52;1.15;;;1.15;;
15012;SDS011;7603;49.432;11.418;2023-12-20T03:11:17;1.27;;;1.27;;
15012;SDS011;7603;49.432;11.418;2023-12-20T03:13:43;1.30;;;1.30;;
15012;SDS011;7603;49.432;11.418;2023-12-20T03:16:12;1.70;;;1.60;;
15012;SDS011;7603;49.432;11.418;2023-12-20T03:18:41;2.70;;;2.50;;
15012;SDS011;7603;49.432;11.418;2023-12-20T03:21:06;1.00;;;1.00;;
15012;SDS011;7603;49.432;11.418;2023-12-20T03:23:32;1.00;;;1.00;;
15012;SDS011;7603;49.432;11.418;2023-12-20T03:25:58;1.40;;;1.40;;
15012;SDS011;7603;49.432;11.418;2023-12-20T03:28:24;1.30;;;1.20;;
15012;SDS011;7603;49.432;11.418;2023-12-20T03:30:51;1.00;;;1.00;;
15012;SDS011;7603;49.432;11.418;2023-12-20T03:33:17;1.60;;;1.30;;
15012;SDS011;7603;49.432;11.418;2023-12-20T03:35:43;1.38;;;1.38;;
15012;SDS011;7603;49.432;11.418;2023-12-20T03:38:08;1.30;;;1.30;;
15012;SDS011;7603;49.432;11.418;2023-12-20T03:40:34;1.02;;;1.02;;
15012;SDS011;7603;49.432;11.418;2023-12-20T03:43:00;1.02;;;1.02;;
15012;SDS011;7603;49.432;11.418;2023-12-20T03:45:26;1.48;;;1.40;;
15012;SDS011;7603;49.432;11.418;2023-12-20T03:47:51;3.03;;;2.10;;
15012;SDS011;7603;49.432;11.418;2023-12-20T03:50:20;1.50;;;1.50;;
15012;SDS011;7603;49.432;11.418;2023-12-20T03:52:49;1.20;;;1.20;;
15012;SDS011;7603;49.432;11.418;2023-12-20T03:55:15;1.10;;;1.10;;
15012;SDS011;7603;49.432;11.418;2023-12-20T03:57:41;0.80;;;0.80;;
15012;SDS011;7603;49.432;11.418;2023-12-20T04:00:07;1.20;;;1.20;;
15012;SDS011;7603;49.432;11.418;2023-12-20T04:02:36;1.60;;;1.50;;
15012;SDS011;7603;49.432;11.418;2023-12-20T04:05:02;2.03;;;1.75;;
15012;SDS011;7603;49.432;11.418;2023-12-20T04:07:28;1.30;;;1.23;;
15012;SDS011;7603;49.432;11.418;2023-12-20T04:09:54;0.98;;;0.95;;
15012;SDS011;7603;49.432;11.418;2023-12-20T04:12:20;6.35;;;1.65;;
15012;SDS011;7603;49.432;11.418;2023-12-20T04:14:46;0.98;;;0.98;;
15012;SDS011;7603;49.432;11.418;2023-12-20T04:17:11;1.17;;;1.17;;
15012;SDS011;7603;49.432;11.418;2023-12-20T04:19:37;2.38;;;1.45;;
15012;SDS011;7603;49.432;11.418;2023-12-20T04:22:02;1.88;;;1.77;;
15012;SDS011;7603;49.432;11.418;2023-12-20T04:24:28;1.70;;;1.60;;
15012;SDS011;7603;49.432;11.418;2023-12-20T04:26:54;1.58;;;1.58;;
15012;SDS011;7603;49.432;11.418;2023-12-20T04:29:19;1.33;;;1.30;;
15012;SDS011;7603;49.432;11.418;2023-12-20T04:31:45;1.60;;;1.58;;
15012;SDS011;7603;49.432;11.418;2023-12-20T04:34:11;1.50;;;1.50;;
15012;SDS011;7603;49.432;11.418;2023-12-20T04:36:36;1.23;;;1.23;;
15012;SDS011;7603;49.432;11.418;2023-12-20T04:39:02;1.73;;;1.65;;
15012;SDS011;7603;49.432;11.418;2023-12-20T04:41:28;1.80;;;1.80;;
15012;SDS011;7603;49.432;11.418;2023-12-20T04:43:53;1.63;;;1.58;;
15012;SDS011;7603;49.432;11.418;2023-12-20T04:46:19;4.70;;;3.63;;
15012;SDS011;7603;49.432;11.418;2023-12-20T04:48:45;3.67;;;3.20;;
15012;SDS011;7603;49.432;11.418;2023-12-20T04:51:10;1.92;;;1.83;;
15012;SDS011;7603;49.432;11.418;2023-12-20T04:53:36;2.47;;;2.33;;
15012;SDS011;7603;49.432;11.418;2023-12-20T04:56:01;2.10;;;1.83;;
15012;SDS011;7603;49.432;11.418;2023-12-20T04:58:27;2.88;;;2.67;;
15012;SDS011;7603;49.432;11.418;2023-12-20T05:00:53;8.85;;;6.25;;
15012;SDS011;7603;49.432;11.418;2023-12-20T05:03:19;1.50;;;1.40;;
15012;SDS011;7603;49.432;11.418;2023-12-20T05:05:44;7.65;;;4.00;;
15012;SDS011;7603;49.432;11.418;2023-12-20T05:08:10;8.25;;;5.20;;
15012;SDS011;7603;49.432;11.418;2023-12-20T05:10:35;10.55;;;6.63;;
15012;SDS011;7603;49.432;11.418;2023-12-20T05:13:01;6.00;;;4.68;;
15012;SDS011;7603;49.432;11.418;2023-12-20T05:15:27;3.72;;;2.60;;
15012;SDS011;7603;49.432;11.418;2023-12-20T05:17:53;4.20;;;3.80;;
15012;SDS011;7603;49.432;11.418;2023-12-20T05:20:18;3.10;;;2.90;;
15012;SDS011;7603;49.432;11.418;2023-12-20T05:22:44;3.67;;;3.47;;
15012;SDS011;7603;49.432;11.418;2023-12-20T05:25:10;3.00;;;2.53;;
15012;SDS011;7603;49.432;11.418;2023-12-20T05:27:36;8.90;;;6.47;;
15012;SDS011;7603;49.432;11.418;2023-12-20T05:30:01;1.70;;;1.60;;
15012;SDS011;7603;49.432;11.418;2023-12-20T05:32:29;2.63;;;2.50;;
15012;SDS011;7603;49.432;11.418;2023-12-20T05:34:55;2.70;;;2.60;;
15012;SDS011;7603;49.432;11.418;2023-12-20T05:37:20;2.10;;;2.00;;
15012;SDS011;7603;49.432;11.418;2023-12-20T05:39:46;3.13;;;2.93;;
15012;SDS011;7603;49.432;11.418;2023-12-20T05:42:12;1.88;;;1.77;;
15012;SDS011;7603;49.432;11.418;2023-12-20T05:44:37;2.25;;;2.15;;
15012;SDS011;7603;49.432;11.418;2023-12-20T05:47:03;1.73;;;1.63;;
15012;SDS011;7603;49.432;11.418;2023-12-20T05:49:29;2.28;;;2.17;;
15012;SDS011;7603;49.432;11.418;2023-12-20T05:51:55;2.00;;;1.90;;
15012;SDS011;7603;49.432;11.418;2023-12-20T05:54:20;2.20;;;2.10;;
15012;SDS011;7603;49.432;11.418;2023-12-20T05:56:46;1.98;;;1.88;;
15012;SDS011;7603;49.432;11.418;2023-12-20T05:59:12;1.55;;;1.45;;
15012;SDS011;7603;49.432;11.418;2023-12-20T06:01:38;2.65;;;2.13;;
15012;SDS011;7603;49.432;11.418;2023-12-20T06:04:04;2.28;;;2.17;;
15012;SDS011;7603;49.432;11.418;2023-12-20T06:06:30;3.08;;;2.88;;
15012;SDS011;7603;49.432;11.418;2023-12-20T06:08:56;5.00;;;3.55;;
15012;SDS011;7603;49.432;11.418;2023-12-20T06:11:21;2.22;;;2.13;;
15012;SDS011;7603;49.432;11.418;2023-12-20T06:13:47;3.33;;;2.50;;
15012;SDS011;7603;49.432;11.418;2023-12-20T06:16:14;2.55;;;2.45;;
15012;SDS011;7603;49.432;11.418;2023-12-20T06:18:40;2.40;;;2.30;;
15012;SDS011;7603;49.432;11.418;2023-12-20T06:21:05;2.80;;;2.60;;
15012;SDS011;7603;49.432;11.418;2023-12-20T06:23:32;2.92;;;2.72;;
15012;SDS011;7603;49.432;11.418;2023-12-20T06:25:58;3.45;;;3.25;;
15012;SDS011;7603;49.432;11.418;2023-12-20T06:28:24;3.58;;;3.33;;
15012;SDS011;7603;49.432;11.418;2023-12-20T06:30:49;3.55;;;3.35;;
15012;SDS011;7603;49.432;11.418;2023-12-20T06:33:17;3.85;;;3.65;;
15012;SDS011;7603;49.432;11.418;2023-12-20T06:35:43;6.45;;;3.28;;
15012;SDS011;7603;49.432;11.418;2023-12-20T06:38:09;3.78;;;3.47;;
15012;SDS011;7603;49.432;11.418;2023-12-20T06:40:35;3.05;;;2.85;;
15012;SDS011;7603;49.432;11.418;2023-12-20T06:43:00;4.07;;;3.78;;
15012;SDS011;7603;49.432;11.418;2023-12-20T06:45:26;3.42;;;3.13;;
15012;SDS011;7603;49.432;11.418;2023-12-20T06:47:51;3.30;;;3.10;;
15012;SDS011;7603;49.432;11.418;2023-12-20T06:50:17;3.50;;;3.30;;
15012;SDS011;7603;49.432;11.418;2023-12-20T06:52:42;3.63;;;3.28;;
15012;SDS011;7603;49.432;11.418;2023-12-20T06:55:08;4.25;;;3.95;;
15012;SDS011;7603;49.432;11.418;2023-12-20T06:57:34;3.33;;;3.13;;
15012;SDS011;7603;49.432;11.418;2023-12-20T07:00:01;6.03;;;5.57;;
15012;SDS011;7603;49.432;11.418;2023-12-20T07:02:27;3.97;;;3.78;;
15012;SDS011;7603;49.432;11.418;2023-12-20T07:04:55;3.85;;;3.55;;
15012;SDS011;7603;49.432;11.418;2023-12-20T07:07:21;3.35;;;3.15;;
15012;SDS011;7603;49.432;11.418;2023-12-20T07:09:48;3.15;;;2.95;;
15012;SDS011;7603;49.432;11.418;2023-12-20T07:12:14;7.38;;;4.50;;
15012;SDS011;7603;49.432;11.418;2023-12-20T07:14:39;4.82;;;4.43;;
15012;SDS011;7603;49.432;11.418;2023-12-20T07:17:06;4.28;;;3.97;;
15012;SDS011;7603;49.432;11.418;2023-12-20T07:19:36;5.38;;;4.97;;
15012;SDS011;7603;49.432;11.418;2023-12-20T07:22:03;4.78;;;4.47;;
15012;SDS011;7603;49.432;11.418;2023-12-20T07:24:29;5.30;;;4.90;;
15012;SDS011;7603;49.432;11.418;2023-12-20T07:26:55;5.30;;;4.90;;
15012;SDS011;7603;49.432;11.418;2023-12-20T07:29:20;5.90;;;5.30;;
15012;SDS011;7603;49.432;11.418;2023-12-20T07:31:46;4.78;;;4.38;;
15012;SDS011;7603;49.432;11.418;2023-12-20T07:34:12;5.60;;;5.10;;
15012;SDS011;7603;49.432;11.418;2023-12-20T07:36:38;5.50;;;5.10;;
15012;SDS011;7603;49.432;11.418;2023-12-20T07:39:03;4.07;;;3.78;;
15012;SDS011;7603;49.432;11.418;2023-12-20T07:41:29;4.95;;;4.63;;
15012;SDS011;7603;49.432;11.418;2023-12-20T07:43:54;5.43;;;5.03;;
15012;SDS011;7603;49.432;11.418;2023-12-20T07:46:21;6.30;;;5.90;;
15012;SDS011;7603;49.432;11.418;2023-12-20T07:48:50;6.80;;;5.60;;
15012;SDS011;7603;49.432;11.418;2023-12-20T07:51:15;5.78;;;5.38;;
15012;SDS011;7603;49.432;11.418;2023-12-20T07:53:41;4.70;;;4.35;;
15012;SDS011;7603;49.432;11.418;2023-12-20T07:56:13;7.43;;;5.40;;
15012;SDS011;7603;49.432;11.418;2023-12-20T07:58:43;7.18;;;6.68;;
15012;SDS011;7603;49.432;11.418;2023-12-20T08:01:10;4.93;;;4.63;;
15012;SDS011;7603;49.432;11.418;2023-12-20T08:03:36;16.85;;;13.48;;
15012;SDS011;7603;49.432;11.418;2023-12-20T08:06:03;4.47;;;4.18;;
15012;SDS011;7603;49.432;11.418;2023-12-20T08:08:29;4.85;;;4.45;;
15012;SDS011;7603;49.432;11.418;2023-12-20T08:10:54;7.53;;;6.93;;
15012;SDS011;7603;49.432;11.418;2023-12-20T08:13:22;5.55;;;4.97;;
15012;SDS011;7603;49.432;11.418;2023-12-20T08:15:50;8.18;;;7.38;;
15012;SDS011;7603;49.432;11.418;2023-12-20T08:18:16;20.23;;;13.57;;
15012;SDS011;7603;49.432;11.418;2023-12-20T08:20:42;6.53;;;5.93;;
15012;SDS011;7603;49.432;11.418;2023-12-20T08:23:08;6.97;;;6.38;;
15012;SDS011;7603;49.432;11.418;2023-12-20T08:25:34;5.03;;;4.68;;
15012;SDS011;7603;49.432;11.418;2023-12-20T08:27:59;5.80;;;5.40;;
15012;SDS011;7603;49.432;11.418;2023-12-20T08:30:26;5.97;;;5.25;;
15012;SDS011;7603;49.432;11.418;2023-12-20T08:32:51;6.30;;;5.82;;
15012;SDS011;7603;49.432;11.418;2023-12-20T08:35:17;5.60;;;5.28;;
15012;SDS011;7603;49.432;11.418;2023-12-20T08:37:43;6.50;;;6.00;;
15012;SDS011;7603;49.432;11.418;2023-12-20T08:40:09;6.65;;;6.25;;
15012;SDS011;7603;49.432;11.418;2023-12-20T08:42:35;6.47;;;6.07;;
15012;SDS011;7603;49.432;11.418;2023-12-20T08:45:01;6.80;;;6.30;;
15012;SDS011;7603;49.432;11.418;2023-12-20T08:47:29;5.13;;;4.75;;
15012;SDS011;7603;49.432;11.418;2023-12-20T08:49:55;5.70;;;5.30;;
15012;SDS011;7603;49.432;11.418;2023-12-20T08:52:23;3.58;;;3.35;;
15012;SDS011;7603;49.432;11.418;2023-12-20T08:54:49;5.18;;;4.80;;
15012;SDS011;7603;49.432;11.418;2023-12-20T08:57:17;4.90;;;4.60;;
15012;SDS011;7603;49.432;11.418;2023-12-20T08:59:44;7.03;;;6.45;;
15012;SDS011;7603;49.432;11.418;2023-12-20T09:02:10;6.25;;;5.75;;
15012;SDS011;7603;49.432;11.418;2023-12-20T09:04:35;4.43;;;4.13;;
15012;SDS011;7603;49.432;11.418;2023-12-20T09:07:01;4.10;;;3.80;;
15012;SDS011;7603;49.432;11.418;2023-12-20T09:09:26;5.45;;;5.05;;
15012;SDS011;7603;49.432;11.418;2023-12-20T09:11:52;2.55;;;2.40;;
15012;SDS011;7603;49.432;11.418;2023-12-20T09:14:17;3.25;;;3.05;;
15012;SDS011;7603;49.432;11.418;2023-12-20T09:16:44;6.13;;;5.40;;
15012;SDS011;7603;49.432;11.418;2023-12-20T09:19:09;6.43;;;5.93;;
15012;SDS011;7603;49.432;11.418;2023-12-20T09:21:35;4.45;;;4.15;;
15012;SDS011;7603;49.432;11.418;2023-12-20T09:24:00;7.50;;;5.70;;
15012;SDS011;7603;49.432;11.418;2023-12-20T09:26:26;5.57;;;5.07;;
15012;SDS011;7603;49.432;11.418;2023-12-20T09:28:52;7.15;;;5.25;;
15012;SDS011;7603;49.432;11.418;2023-12-20T09:31:17;5.20;;;4.78;;
15012;SDS011;7603;49.432;11.418;2023-12-20T09:33:43;5.85;;;5.03;;
15012;SDS011;7603;49.432;11.418;2023-12-20T09:36:08;4.68;;;4.38;;
15012;SDS011;7603;49.432;11.418;2023-12-20T09:38:34;5.05;;;3.20;;
15012;SDS011;7603;49.432;11.418;2023-12-20T09:41:00;8.85;;;7.78;;
15012;SDS011;7603;49.432;11.418;2023-12-20T09:43:28;4.88;;;4.47;;
15012;SDS011;7603;49.432;11.418;2023-12-20T09:45:55;8.20;;;7.35;;
15012;SDS011;7603;49.432;11.418;2023-12-20T09:48:27;3.75;;;3.45;;
15012;SDS011;7603;49.432;11.418;2023-12-20T09:50:53;6.40;;;6.00;;
15012;SDS011;7603;49.432;11.418;2023-12-20T09:53:19;4.88;;;4.57;;
15012;SDS011;7603;49.432;11.418;2023-12-20T09:55:48;3.65;;;3.35;;
15012;SDS011;7603;49.432;11.418;2023-12-20T09:58:14;3.10;;;2.90;;
15012;SDS011;7603;49.432;11.418;2023-12-20T10:00:40;4.35;;;4.05;;
15012;SDS011;7603;49.432;11.418;2023-12-20T10:03:06;4.00;;;3.70;;
15012;SDS011;7603;49.432;11.418;2023-12-20T10:05:32;3.47;;;3.08;;
15012;SDS011;7603;49.432;11.418;2023-12-20T10:07:59;2.78;;;2.58;;
15012;SDS011;7603;49.432;11.418;2023-12-20T10:10:26;3.97;;;2.95;;
15012;SDS011;7603;49.432;11.418;2023-12-20T10:13:02;4.13;;;2.58;;
15012;SDS011;7603;49.432;11.418;2023-12-20T10:15:28;5.03;;;3.25;;
15012;SDS011;7603;49.432;11.418;2023-12-20T10:17:53;2.50;;;2.30;;
15012;SDS011;7603;49.432;11.418;2023-12-20T10:20:19;4.32;;;2.28;;
15012;SDS011;7603;49.432;11.418;2023-12-20T10:22:46;3.35;;;2.88;;
15012;SDS011;7603;49.432;11.418;2023-12-20T10:25:12;3.00;;;2.80;;
15012;SDS011;7603;49.432;11.418;2023-12-20T10:27:38;2.42;;;2.08;;
15012;SDS011;7603;49.432;11.418;2023-12-20T10:30:03;4.88;;;2.50;;
15012;SDS011;7603;49.432;11.418;2023-12-20T10:32:29;2.25;;;2.15;;
15012;SDS011;7603;49.432;11.418;2023-12-20T10:34:56;5.82;;;5.18;;
15012;SDS011;7603;49.432;11.418;2023-12-20T10:37:22;6.18;;;2.53;;
15012;SDS011;7603;49.432;11.418;2023-12-20T10:39:51;3.80;;;2.25;;
15012;SDS011;7603;49.432;11.418;2023-12-20T10:42:21;5.88;;;2.50;;
15012;SDS011;7603;49.432;11.418;2023-12-20T10:44:48;4.60;;;2.10;;
15012;SDS011;7603;49.432;11.418;2023-12-20T10:47:16;3.60;;;2.92;;
15012;SDS011;7603;49.432;11.418;2023-12-20T10:49:42;4.30;;;2.42;;
15012;SDS011;7603;49.432;11.418;2023-12-20T10:52:09;5.43;;;2.92;;
15012;SDS011;7603;49.432;11.418;2023-12-20T10:54:36;6.15;;;2.70;;
15012;SDS011;7603;49.432;11.418;2023-12-20T10:57:05;3.20;;;2.20;;
15012;SDS011;7603;49.432;11.418;2023-12-20T10:59:32;3.10;;;2.20;;
15012;SDS011;7603;49.432;11.418;2023-12-20T11:02:00;5.47;;;2.25;;
15012;SDS011;7603;49.432;11.418;2023-12-20T11:04:31;6.88;;;2.60;;
15012;SDS011;7603;49.432;11.418;2023-12-20T11:10:29;2.42;;;2.22;;
15012;SDS011;7603;49.432;11.418;2023-12-20T11:15:46;3.58;;;2.72;;
15012;SDS011;7603;49.432;11.418;2023-12-20T11:18:12;4.60;;;2.92;;
15012;SDS011;7603;49.432;11.418;2023-12-20T11:20:38;3.05;;;2.30;;
15012;SDS011;7603;49.432;11.418;2023-12-20T11:23:06;2.45;;;2.17;;
15012;SDS011;7603;49.432;11.418;2023-12-20T11:28:13;6.18;;;2.95;;
15012;SDS011;7603;49.432;11.418;2023-12-20T11:33:08;2.55;;;2.35;;
15012;SDS011;7603;49.432;11.418;2023-12-20T11:35:34;3.72;;;2.20;;
15012;SDS011;7603;49.432;11.418;2023-12-20T11:38:01;2.63;;;2.38;;
15012;SDS011;7603;49.432;11.418;2023-12-20T11:40:27;3.08;;;2.72;;
15012;SDS011;7603;49.432;11.418;2023-12-20T11:42:53;5.88;;;2.47;;
15012;SDS011;7603;49.432;11.418;2023-12-20T11:45:23;2.78;;;2.58;;
15012;SDS011;7603;49.432;11.418;2023-12-20T11:47:51;2.58;;;2.10;;
15012;SDS011;7603;49.432;11.418;2023-12-20T11:50:18;3.13;;;2.92;;
15012;SDS011;7603;49.432;11.418;2023-12-20T11:52:44;8.48;;;6.47;;
15012;SDS011;7603;49.432;11.418;2023-12-20T11:55:10;4.07;;;2.20;;
15012;SDS011;7603;49.432;11.418;2023-12-20T11:57:36;2.55;;;1.90;;
15012;SDS011;7603;49.432;11.418;2023-12-20T12:00:05;2.67;;;2.30;;
15012;SDS011;7603;49.432;11.418;2023-12-20T12:02:31;3.08;;;2.40;;
15012;SDS011;7603;49.432;11.418;2023-12-20T12:04:57;1.88;;;1.77;;
15012;SDS011;7603;49.432;11.418;2023-12-20T12:07:24;2.55;;;1.80;;
15012;SDS011;7603;49.432;11.418;2023-12-20T12:09:50;2.88;;;2.00;;
15012;SDS011;7603;49.432;11.418;2023-12-20T12:12:16;3.15;;;2.28;;
15012;SDS011;7603;49.432;11.418;2023-12-20T12:14:44;2.03;;;1.85;;
15012;SDS011;7603;49.432;11.418;2023-12-20T12:17:10;2.72;;;1.58;;
15012;SDS011;7603;49.432;11.418;2023-12-20T12:19:40;5.40;;;2.33;;
15012;SDS011;7603;49.432;11.418;2023-12-20T12:22:06;2.53;;;1.55;;
15012;SDS011;7603;49.432;11.418;2023-12-20T12:24:36;1.65;;;1.55;;
15012;SDS011;7603;49.432;11.418;2023-12-20T12:27:08;1.90;;;1.80;;
15012;SDS011;7603;49.432;11.418;2023-12-20T12:29:34;4.72;;;1.90;;
15012;SDS011;7603;49.432;11.418;2023-12-20T12:32:00;8.50;;;2.13;;
15012;SDS011;7603;49.432;11.418;2023-12-20T12:34:29;4.38;;;2.95;;
15012;SDS011;7603;49.432;11.418;2023-12-20T12:36:56;2.65;;;2.45;;
15012;SDS011;7603;49.432;11.418;2023-12-20T12:39:23;2.25;;;2.05;;
15012;SDS011;7603;49.432;11.418;2023-12-20T12:41:52;4.95;;;2.25;;
15012;SDS011;7603;49.432;11.418;2023-12-20T12:44:18;3.97;;;2.63;;
15012;SDS011;7603;49.432;11.418;2023-12-20T12:46:45;2.42;;;2.22;;
15012;SDS011;7603;49.432;11.418;2023-12-20T12:49:11;4.38;;;1.85;;
15012;SDS011;7603;49.432;11.418;2023-12-20T12:51:37;4.82;;;2.42;;
15012;SDS011;7603;49.432;11.418;2023-12-20T12:54:03;2.92;;;2.63;;
15012;SDS011;7603;49.432;11.418;2023-12-20T12:56:29;6.10;;;3.70;;
15012;SDS011;7603;49.432;11.418;2023-12-20T12:58:54;3.88;;;3.35;;
15012;SDS011;7603;49.432;11.418;2023-12-20T13:01:20;5.25;;;3.33;;
15012;SDS011;7603;49.432;11.418;2023-12-20T13:03:46;2.78;;;2.55;;
15012;SDS011;7603;49.432;11.418;2023-12-20T13:06:12;2.83;;;2.45;;
15012;SDS011;7603;49.432;11.418;2023-12-20T13:08:38;5.13;;;3.30;;
15012;SDS011;7603;49.432;11.418;2023-12-20T13:11:04;4.78;;;2.63;;
15012;SDS011;7603;49.432;11.418;2023-12-20T13:13:30;8.68;;;5.32;;
15012;SDS011;7603;49.432;11.418;2023-12-20T13:15:56;7.07;;;4.18;;
15012;SDS011;7603;49.432;11.418;2023-12-20T13:18:24;5.25;;;2.50;;
15012;SDS011;7603;49.432;11.418;2023-12-20T13:20:50;5.00;;;1.67;;
15012;SDS011;7603;49.432;11.418;2023-12-20T13:23:16;18.80;;;7.13;;
15012;SDS011;7603;49.432;11.418;2023-12-20T13:25:43;16.30;;;6.63;;
15012;SDS011;7603;49.432;11.418;2023-12-20T13:28:12;6.15;;;3.38;;
15012;SDS011;7603;49.432;11.418;2023-12-20T13:30:38;6.68;;;4.47;;
15012;SDS011;7603;49.432;11.418;2023-12-20T13:33:04;10.93;;;5.32;;
15012;SDS011;7603;49.432;11.418;2023-12-20T13:35:31;7.20;;;3.28;;
15012;SDS011;7603;49.432;11.418;2023-12-20T13:37:57;3.15;;;2.85;;
15012;SDS011;7603;49.432;11.418;2023-12-20T13:40:23;3.58;;;2.75;;
15012;SDS011;7603;49.432;11.418;2023-12-20T13:42:49;4.05;;;2.20;;
15012;SDS011;7603;49.432;11.418;2023-12-20T13:45:14;6.45;;;3.30;;
15012;SDS011;7603;49.432;11.418;2023-12-20T13:47:40;2.97;;;1.73;;
15012;SDS011;7603;49.432;11.418;2023-12-20T13:50:06;3.70;;;2.20;;
15012;SDS011;7603;49.432;11.418;2023-12-20T13:52:32;3.47;;;1.65;;
15012;SDS011;7603;49.432;11.418;2023-12-20T13:54:57;5.10;;;2.17;;
15012;SDS011;7603;49.432;11.418;2023-12-20T13:57:23;2.67;;;2.47;;
15012;SDS011;7603;49.432;11.418;2023-12-20T13:59:49;5.43;;;2.30;;
15012;SDS011;7603;49.432;11.418;2023-12-20T14:02:14;4.28;;;3.05;;
15012;SDS011;7603;49.432;11.418;2023-12-20T14:04:41;8.13;;;2.72;;
15012;SDS011;7603;49.432;11.418;2023-12-20T14:07:07;3.80;;;2.58;;
15012;SDS011;7603;49.432;11.418;2023-12-20T14:09:34;2.92;;;1.80;;
15012;SDS011;7603;49.432;11.418;2023-12-20T14:12:00;2.90;;;2.70;;
15012;SDS011;7603;49.432;11.418;2023-12-20T14:14:25;2.17;;;2.05;;
15012;SDS011;7603;49.432;11.418;2023-12-20T14:16:51;3.08;;;2.53;;
15012;SDS011;7603;49.432;11.418;2023-12-20T14:19:17;2.40;;;2.30;;
15012;SDS011;7603;49.432;11.418;2023-12-20T14:21:43;2.63;;;2.42;;
15012;SDS011;7603;49.432;11.418;2023-12-20T14:24:10;5.78;;;2.50;;
15012;SDS011;7603;49.432;11.418;2023-12-20T14:26:39;3.80;;;2.35;;
15012;SDS011;7603;49.432;11.418;2023-12-20T14:29:06;4.15;;;2.20;;
15012;SDS011;7603;49.432;11.418;2023-12-20T14:31:32;2.40;;;2.20;;
15012;SDS011;7603;49.432;11.418;2023-12-20T14:33:58;3.30;;;2.28;;
15012;SDS011;7603;49.432;11.418;2023-12-20T14:36:24;4.57;;;2.97;;
15012;SDS011;7603;49.432;11.418;2023-12-20T14:38:50;3.33;;;2.33;;
15012;SDS011;7603;49.432;11.418;2023-12-20T14:41:16;4.55;;;3.42;;
15012;SDS011;7603;49.432;11.418;2023-12-20T14:43:43;2.78;;;2.00;;
15012;SDS011;7603;49.432;11.418;2023-12-20T14:46:10;2.45;;;1.90;;
15012;SDS011;7603;49.432;11.418;2023-12-20T14:48:35;3.75;;;2.35;;
15012;SDS011;7603;49.432;11.418;2023-12-20T14:51:01;1.92;;;1.83;;